Terminal Aerodrome Forecast
Issued by NWS

Home | Current Version | Previous Version | Text Only | Print | Product List | Glossary On
Versions: 1 2 3 4 5 6 7 8 9 10 11 12 13 14
000
FTUS45 KBOI 200535
TAFJER
TAF
KJER 200535Z 2006/2106 07008KT P6SM BKN090
     FM201500 05015KT P6SM -RA OVC040
     FM210300 09010KT P6SM -SHRA BKN050
      AMD NOT SKED=

USA.gov is the U.S. government's official web portal to all federal, state and local government web resources and services.